Aérodrome :
LOGIN :

S'inscrire | Disclaimer

   EN    FR    IT 

 










Légende :    VFR   VFR Marginal   IFR   IFR Intensif   IFR Très Intensif
Visi : 
Plafond : 
>= 8 km
>= 3000ft
5 à 8 km
1000 à 3000 ft
1500m à 5 km
500 à 1000 ft
800 à 1500m
200 à 500 ft
< 800m
< 200 ft
Symboles :   Orages  Brouillard  Fortes neiges  Fortes précipitations  Vent > 20 kt
SIGMETs :   Divers  Orages  Givrage  Turbulence  Onde Orograph.  Cendres Volcan.






- Altitude de l'aérodrome : 238 ft
- Code IATA : FAB


EGLF - Farnborough

DERNIER METAR :
  • 081050Z AUTO 08008KT 9999 NCD 17/08 Q1024

METARs EXPIRÉS :
  • 081020Z AUTO 06007KT 9999 NCD 16/07 Q1025
  • 080950Z AUTO 05008KT 9999 NCD 15/07 Q1025
  • 080920Z AUTO 06006KT 9999 NCD 14/07 Q1025
  • 080850Z AUTO 05005KT 360V070 9999 NCD 14/07 Q1025
  • 080820Z AUTO 05005KT 9999 NCD 13/07 Q1025

TAF TAF EGLF
Valide du 08 à 09h jusqu'au 08 à 18h UTC


080801Z 0809/0818 VRB03KT 9999 FEW045
PROB30
TEMPO 0812/0818 8000 SHRA
ATIS : +44 09063 800 400 (*282)



MET'MAP, la Météo Aéronautique d'un coup d'oeil ! - Copyright ORBIFLY Décembre 2007 - Disclaimer

ORBIFLY MET'MAP TEAM :

Programmation & Développement : Alexandra Zaïnal
Sur une idée originale de : Baudouin d'Aumeries
Assistance à la programmation : Marc-Olivier Méhu
Soutien technique & logistique : Manuel Goepfert

Contact : metmap@orbifly.com




SOURCES & CREDITS :

   NOAA